createdAt,value
2018-03-20T00:00:20.560Z,59.00
2018-03-20T00:02:48.031Z,58.80
2018-03-20T00:05:15.514Z,59.10
2018-03-20T00:07:42.966Z,58.90
2018-03-20T00:10:10.422Z,59.50
2018-03-20T00:12:37.884Z,58.50
2018-03-20T00:15:05.346Z,58.20
2018-03-20T00:17:39.680Z,58.30
2018-03-20T00:20:09.329Z,57.80
2018-03-20T00:22:36.790Z,57.70
2018-03-20T00:25:04.269Z,57.90
2018-03-20T00:27:31.712Z,57.50
2018-03-20T00:29:59.606Z,57.40
2018-03-20T00:32:27.328Z,57.30
2018-03-20T00:34:54.763Z,57.20
2018-03-20T00:37:22.238Z,57.20
2018-03-20T00:39:49.691Z,56.80
2018-03-20T00:42:17.180Z,56.60
2018-03-20T00:44:44.643Z,56.50
2018-03-20T00:47:12.103Z,56.30
2018-03-20T00:49:39.580Z,56.30
2018-03-20T00:52:07.047Z,56.80
2018-03-20T00:54:34.946Z,56.80
2018-03-20T00:57:02.426Z,56.70
2018-03-20T00:59:29.866Z,56.80
2018-03-20T01:01:57.357Z,56.90
2018-03-20T01:04:24.796Z,56.90
2018-03-20T01:06:52.266Z,57.10
2018-03-20T01:09:20.491Z,57.30
2018-03-20T01:11:47.956Z,57.00
2018-03-20T01:14:15.410Z,57.20
2018-03-20T01:16:42.980Z,57.30
2018-03-20T01:19:10.456Z,57.40
2018-03-20T01:21:37.915Z,57.40
2018-03-20T01:24:05.372Z,57.40
2018-03-20T01:26:32.842Z,57.40
2018-03-20T01:29:00.509Z,57.80
2018-03-20T01:31:28.155Z,57.50
2018-03-20T01:33:55.601Z,58.00
2018-03-20T01:36:23.045Z,58.10
2018-03-20T01:38:50.502Z,58.00
2018-03-20T01:41:17.973Z,58.10
2018-03-20T01:43:45.449Z,58.10
2018-03-20T01:46:12.889Z,58.10
2018-03-20T01:48:40.337Z,57.90
2018-03-20T01:51:07.793Z,57.90
2018-03-20T01:53:35.304Z,57.90
2018-03-20T01:56:02.753Z,57.80
2018-03-20T01:58:30.211Z,57.70
2018-03-20T02:00:57.692Z,57.70
2018-03-20T02:03:25.149Z,57.90
2018-03-20T02:05:52.589Z,57.90
2018-03-20T02:08:20.041Z,58.00
2018-03-20T02:10:48.281Z,58.20
2018-03-20T02:13:15.798Z,58.20
2018-03-20T02:15:43.716Z,58.20
2018-03-20T02:18:11.186Z,58.30
2018-03-20T02:20:40.243Z,58.50
2018-03-20T02:23:07.734Z,58.50
2018-03-20T02:25:35.189Z,58.50
2018-03-20T02:28:02.657Z,58.30
2018-03-20T02:30:30.115Z,58.30
2018-03-20T02:32:57.600Z,58.70
2018-03-20T02:35:25.065Z,58.70
2018-03-20T02:37:53.278Z,58.40
2018-03-20T02:40:21.341Z,58.20
2018-03-20T02:42:48.788Z,58.40
2018-03-20T02:45:16.241Z,58.90
2018-03-20T02:47:43.699Z,58.70
2018-03-20T02:50:11.911Z,59.40
2018-03-20T02:52:39.387Z,58.60
2018-03-20T02:55:06.843Z,58.90
2018-03-20T02:57:34.277Z,58.60
2018-03-20T03:00:01.738Z,58.50
2018-03-20T03:02:37.160Z,58.50
2018-03-20T03:05:04.616Z,58.30
2018-03-20T03:07:32.054Z,58.10
2018-03-20T03:09:59.497Z,58.50
2018-03-20T03:12:27.131Z,58.70
2018-03-20T03:14:54.586Z,58.90
2018-03-20T03:17:22.045Z,58.70
2018-03-20T03:19:49.494Z,59.10
2018-03-20T03:22:16.956Z,59.10
2018-03-20T03:24:44.402Z,59.20
2018-03-20T03:27:11.853Z,59.30
2018-03-20T03:29:39.293Z,58.90
2018-03-20T03:32:06.770Z,59.10
2018-03-20T03:34:34.212Z,59.10
2018-03-20T03:37:01.686Z,59.00
2018-03-20T03:39:29.141Z,58.90
2018-03-20T03:41:56.594Z,58.50
2018-03-20T03:44:24.057Z,58.60
2018-03-20T03:46:51.521Z,58.60
2018-03-20T03:49:18.986Z,58.90
2018-03-20T03:51:46.438Z,59.10
2018-03-20T03:54:13.886Z,59.50
2018-03-20T03:56:41.359Z,59.50
2018-03-20T03:59:08.813Z,59.60
2018-03-20T04:01:36.281Z,59.90
2018-03-20T04:04:03.730Z,59.70
2018-03-20T04:06:31.181Z,59.80
2018-03-20T04:08:58.641Z,59.90
2018-03-20T04:11:26.111Z,59.50
2018-03-20T04:13:53.674Z,59.40
2018-03-20T04:16:21.113Z,59.50
2018-03-20T04:18:49.332Z,59.80
2018-03-20T04:21:16.817Z,59.70
2018-03-20T04:23:44.273Z,59.90
2018-03-20T04:26:12.040Z,60.00
2018-03-20T04:28:39.512Z,60.30
2018-03-20T04:31:06.963Z,60.30
2018-03-20T04:33:34.404Z,60.30
2018-03-20T04:36:01.852Z,60.40
2018-03-20T04:38:29.305Z,60.30
2018-03-20T04:40:56.767Z,60.50
2018-03-20T04:43:24.220Z,60.60
2018-03-20T04:45:51.699Z,60.70
2018-03-20T04:48:19.145Z,60.60
2018-03-20T04:50:46.787Z,61.00
2018-03-20T04:53:14.244Z,61.10
2018-03-20T04:55:41.688Z,61.00
2018-03-20T04:58:09.147Z,61.20
2018-03-20T05:00:36.590Z,61.40
2018-03-20T05:03:04.046Z,61.60
2018-03-20T05:05:31.485Z,62.00
2018-03-20T05:07:58.918Z,61.90
2018-03-20T05:10:26.393Z,61.70
2018-03-20T05:12:53.853Z,61.80
2018-03-20T05:15:21.315Z,61.80
2018-03-20T05:18:04.273Z,61.90
2018-03-20T05:20:51.433Z,62.10
2018-03-20T05:23:24.464Z,62.40
2018-03-20T05:25:51.921Z,62.50
2018-03-20T05:28:19.372Z,62.80
2018-03-20T05:30:46.817Z,62.90
2018-03-20T05:33:15.056Z,63.30
2018-03-20T05:35:42.674Z,63.10
2018-03-20T05:38:10.208Z,63.20
2018-03-20T05:40:37.641Z,64.50
2018-03-20T05:43:05.096Z,64.90
2018-03-20T05:45:32.552Z,64.10
2018-03-20T05:48:03.430Z,63.60
2018-03-20T05:50:34.454Z,63.30
2018-03-20T05:53:01.897Z,63.60
2018-03-20T05:55:29.484Z,64.30
2018-03-20T05:57:56.923Z,63.50
2018-03-20T06:00:24.382Z,63.20
2018-03-20T06:02:51.832Z,63.00
2018-03-20T06:05:19.276Z,63.30
2018-03-20T06:07:46.721Z,63.30
2018-03-20T06:10:15.758Z,63.50
2018-03-20T06:12:43.221Z,63.30
2018-03-20T06:15:10.666Z,63.50
2018-03-20T06:17:38.118Z,62.70
2018-03-20T06:20:06.342Z,62.80
2018-03-20T06:22:35.694Z,62.70
2018-03-20T06:25:03.157Z,63.00
2018-03-20T06:27:30.603Z,63.20
2018-03-20T06:29:58.046Z,63.00
2018-03-20T06:32:25.505Z,63.00
2018-03-20T06:34:52.950Z,63.70
2018-03-20T06:37:20.433Z,63.60
2018-03-20T06:39:47.877Z,64.00
2018-03-20T06:42:15.350Z,62.40
2018-03-20T06:44:42.807Z,62.40
2018-03-20T06:47:10.252Z,61.80
2018-03-20T06:49:37.726Z,61.10
2018-03-20T06:52:05.166Z,61.10
2018-03-20T06:54:32.613Z,62.00
2018-03-20T06:57:00.085Z,62.10
2018-03-20T06:59:27.537Z,62.10
2018-03-20T07:01:55.011Z,62.10
2018-03-20T07:04:22.464Z,63.50
2018-03-20T07:06:49.918Z,62.50
2018-03-20T07:09:17.386Z,62.50
2018-03-20T07:11:44.866Z,62.70
2018-03-20T07:14:12.314Z,62.70
2018-03-20T07:16:39.759Z,62.70
2018-03-20T07:19:07.203Z,62.30
2018-03-20T07:21:35.442Z,62.20
2018-03-20T07:24:02.898Z,62.10
2018-03-20T07:26:30.383Z,61.90
2018-03-20T07:28:58.230Z,61.40
2018-03-20T07:31:25.735Z,61.00
2018-03-20T07:33:53.947Z,60.10
2018-03-20T07:36:21.388Z,60.00
2018-03-20T07:38:48.834Z,59.40
2018-03-20T07:41:16.285Z,59.20
2018-03-20T07:43:43.735Z,59.30
2018-03-20T07:46:11.198Z,59.30
2018-03-20T07:48:38.654Z,59.40
2018-03-20T07:51:06.113Z,59.40
2018-03-20T07:53:33.673Z,59.60
2018-03-20T07:56:01.119Z,59.80
2018-03-20T07:58:28.569Z,59.90
2018-03-20T08:00:56.010Z,59.70
2018-03-20T08:03:23.461Z,60.00
2018-03-20T08:05:50.913Z,59.60
2018-03-20T08:08:18.353Z,60.20
2018-03-20T08:10:45.801Z,59.70
2018-03-20T08:13:13.324Z,60.00
2018-03-20T08:15:40.719Z,60.40
2018-03-20T08:18:08.180Z,60.30
2018-03-20T08:20:35.618Z,60.00
2018-03-20T08:23:03.068Z,59.70
2018-03-20T08:25:30.515Z,59.60
2018-03-20T08:27:58.027Z,59.70
2018-03-20T08:30:25.783Z,59.90
2018-03-20T08:32:53.553Z,60.00
2018-03-20T08:35:21.041Z,60.80
2018-03-20T08:37:48.483Z,61.40
2018-03-20T08:40:15.944Z,61.00
2018-03-20T08:42:43.391Z,61.30
2018-03-20T08:45:10.821Z,61.00
2018-03-20T08:47:39.216Z,60.90
2018-03-20T08:50:06.642Z,60.60
2018-03-20T08:52:34.160Z,59.70
2018-03-20T08:55:01.533Z,59.40
2018-03-20T08:57:28.985Z,58.90
2018-03-20T08:59:56.442Z,57.90
2018-03-20T09:02:23.884Z,56.40
2018-03-20T09:04:51.330Z,56.30
2018-03-20T09:07:18.770Z,56.50
2018-03-20T09:09:46.218Z,56.40
2018-03-20T09:12:14.429Z,57.10
2018-03-20T09:14:41.870Z,57.10
2018-03-20T09:17:09.324Z,56.80
2018-03-20T09:19:37.535Z,55.40
2018-03-20T09:22:04.981Z,55.30
2018-03-20T09:24:32.453Z,55.10
2018-03-20T09:26:59.881Z,54.60
2018-03-20T09:29:27.341Z,54.70
2018-03-20T09:31:54.792Z,56.70
2018-03-20T09:34:22.253Z,57.80
2018-03-20T09:36:49.719Z,58.10
2018-03-20T09:39:17.156Z,58.00
2018-03-20T09:41:45.348Z,57.40
2018-03-20T09:44:12.770Z,57.80
2018-03-20T09:46:40.218Z,57.30
2018-03-20T09:49:07.680Z,56.00
2018-03-20T09:51:35.124Z,53.90
2018-03-20T09:54:02.572Z,52.70
2018-03-20T09:56:30.023Z,52.40
2018-03-20T09:58:57.449Z,52.50
2018-03-20T10:01:24.976Z,51.60
2018-03-20T10:03:52.794Z,50.20
2018-03-20T10:06:21.246Z,46.40
2018-03-20T10:08:48.680Z,43.70
2018-03-20T10:11:16.147Z,42.20
2018-03-20T10:13:43.618Z,40.60
2018-03-20T10:16:11.066Z,39.60
2018-03-20T10:18:38.532Z,38.50
2018-03-20T10:21:05.966Z,37.20
2018-03-20T10:23:33.408Z,37.40
2018-03-20T10:28:26.053Z,37.40
2018-03-20T10:30:53.512Z,39.30
2018-03-20T10:33:20.945Z,42.90
2018-03-20T10:35:48.379Z,45.40
2018-03-20T10:38:15.820Z,47.40
2018-03-20T10:40:43.675Z,49.30
2018-03-20T10:43:11.174Z,51.00
2018-03-20T10:45:38.618Z,52.30
2018-03-20T10:48:06.068Z,53.80
2018-03-20T10:50:33.611Z,54.80
2018-03-20T10:53:01.204Z,55.30
2018-03-20T10:55:28.682Z,56.50
2018-03-20T10:57:56.116Z,56.90
2018-03-20T11:00:29.305Z,57.40
2018-03-20T11:02:56.741Z,57.80
2018-03-20T11:05:24.186Z,58.20
2018-03-20T11:07:51.640Z,58.10
2018-03-20T11:10:19.849Z,58.60
2018-03-20T11:12:47.304Z,58.60
2018-03-20T11:15:14.737Z,59.30
2018-03-20T11:17:42.950Z,60.70
2018-03-20T11:20:10.412Z,60.70
2018-03-20T11:22:37.862Z,61.40
2018-03-20T11:25:05.337Z,61.90
2018-03-20T11:27:32.778Z,62.00
2018-03-20T11:30:00.268Z,61.90
2018-03-20T11:32:27.681Z,62.00
2018-03-20T11:34:55.117Z,61.60
2018-03-20T11:37:22.574Z,61.10
2018-03-20T11:39:50.025Z,62.50
2018-03-20T11:42:17.462Z,59.80
2018-03-20T11:44:44.962Z,57.00
2018-03-20T11:47:12.410Z,53.20
2018-03-20T11:49:39.846Z,52.00
2018-03-20T11:52:07.300Z,51.90
2018-03-20T11:54:34.731Z,50.90
2018-03-20T11:57:02.176Z,52.90
2018-03-20T11:59:29.613Z,53.30
2018-03-20T12:01:57.065Z,54.30
2018-03-20T12:04:24.526Z,55.20
2018-03-20T12:06:51.960Z,55.70
2018-03-20T12:09:31.297Z,56.90
2018-03-20T12:11:58.765Z,56.30
2018-03-20T12:14:26.277Z,56.70
2018-03-20T12:16:53.728Z,57.30
2018-03-20T12:19:21.165Z,57.50
2018-03-20T12:21:48.628Z,57.60
2018-03-20T12:24:16.208Z,58.00
2018-03-20T12:26:43.648Z,58.60
2018-03-20T12:29:11.105Z,59.00
2018-03-20T12:31:38.569Z,59.10
2018-03-20T12:34:06.022Z,59.60
2018-03-20T12:36:34.026Z,59.30
2018-03-20T12:39:01.468Z,59.30
2018-03-20T12:41:28.982Z,60.20
2018-03-20T12:43:56.422Z,59.00
2018-03-20T12:46:23.965Z,56.30
2018-03-20T12:48:51.545Z,55.20
2018-03-20T12:51:19.009Z,55.10
2018-03-20T12:53:46.444Z,55.20
2018-03-20T12:56:13.997Z,55.50
2018-03-20T12:58:41.459Z,56.20
2018-03-20T13:01:08.885Z,57.00
2018-03-20T13:03:36.339Z,58.10
2018-03-20T13:06:03.861Z,59.70
2018-03-20T13:08:31.318Z,61.20
2018-03-20T13:10:58.770Z,62.60
2018-03-20T13:13:26.229Z,64.00
2018-03-20T13:15:53.676Z,65.20
2018-03-20T13:18:21.296Z,66.10
2018-03-20T13:20:48.736Z,66.90
2018-03-20T13:23:16.321Z,67.70
2018-03-20T13:25:43.987Z,68.10
2018-03-20T13:28:11.430Z,68.80
2018-03-20T13:30:38.901Z,69.00
2018-03-20T13:33:06.329Z,69.60
2018-03-20T13:35:33.828Z,70.20
2018-03-20T13:38:01.281Z,70.80
2018-03-20T13:40:28.720Z,71.40
2018-03-20T13:42:56.182Z,71.70
2018-03-20T13:45:23.624Z,72.30
2018-03-20T13:47:51.061Z,72.80
2018-03-20T13:50:18.509Z,73.00
2018-03-20T13:52:49.339Z,73.50
2018-03-20T13:55:13.406Z,73.50
2018-03-20T13:57:40.834Z,74.10
2018-03-20T14:00:08.348Z,74.00
2018-03-20T14:02:38.175Z,74.10
2018-03-20T14:05:05.610Z,73.90
2018-03-20T14:07:33.071Z,74.00
2018-03-20T14:10:00.511Z,74.10
2018-03-20T14:12:27.961Z,74.30
2018-03-20T14:14:55.432Z,74.30
2018-03-20T14:17:22.870Z,74.40
2018-03-20T14:19:50.393Z,74.30
2018-03-20T14:22:18.236Z,74.20
2018-03-20T14:24:45.674Z,73.20
2018-03-20T14:27:13.121Z,73.00
2018-03-20T14:29:40.569Z,72.80
2018-03-20T14:32:08.830Z,72.40
2018-03-20T14:34:36.259Z,72.40
2018-03-20T14:37:03.700Z,71.60
2018-03-20T14:39:31.153Z,71.00
2018-03-20T14:41:58.847Z,70.40
2018-03-20T14:44:26.325Z,70.10
2018-03-20T14:46:53.777Z,69.50
2018-03-20T14:49:21.221Z,68.90
2018-03-20T14:51:48.675Z,68.70
2018-03-20T14:54:16.114Z,68.50
2018-03-20T14:56:43.578Z,68.30
2018-03-20T14:59:11.008Z,68.00
2018-03-20T15:01:39.222Z,67.50
2018-03-20T15:04:07.225Z,67.50
2018-03-20T15:06:34.993Z,67.10
2018-03-20T15:09:02.437Z,67.00
2018-03-20T15:11:29.939Z,66.60
2018-03-20T15:13:57.774Z,67.10
2018-03-20T15:16:25.237Z,67.40
2018-03-20T15:18:52.677Z,67.80
2018-03-20T15:21:20.156Z,67.60
2018-03-20T15:23:47.619Z,67.90
2018-03-20T15:26:15.069Z,68.10
2018-03-20T15:28:42.530Z,68.20
2018-03-20T15:31:09.945Z,68.60
2018-03-20T15:33:37.398Z,68.70
2018-03-20T15:36:04.846Z,68.90
2018-03-20T15:38:32.324Z,69.20
2018-03-20T15:40:59.770Z,69.40
2018-03-20T15:43:27.535Z,69.40
2018-03-20T15:45:54.987Z,69.60
2018-03-20T15:48:22.562Z,69.80
2018-03-20T15:50:50.027Z,69.60
2018-03-20T15:53:17.480Z,69.60
2018-03-20T15:55:44.918Z,69.50
2018-03-20T15:58:12.376Z,69.50
2018-03-20T16:00:40.793Z,69.20
2018-03-20T16:03:08.258Z,69.20
2018-03-20T16:05:35.816Z,69.30
2018-03-20T16:08:03.289Z,69.40
2018-03-20T16:10:30.736Z,69.40
2018-03-20T16:12:58.186Z,69.40
2018-03-20T16:15:25.662Z,69.50
2018-03-20T16:17:53.105Z,69.40
2018-03-20T16:20:20.554Z,69.50
2018-03-20T16:22:48.027Z,69.80
2018-03-20T16:25:15.451Z,69.70
2018-03-20T16:27:42.911Z,69.70
2018-03-20T16:30:10.345Z,69.90
2018-03-20T16:32:38.816Z,70.50
2018-03-20T16:35:06.364Z,70.50
2018-03-20T16:37:33.805Z,70.80
2018-03-20T16:40:01.295Z,71.10
2018-03-20T16:42:28.754Z,71.20
2018-03-20T16:44:56.626Z,71.10
2018-03-20T16:47:24.085Z,71.40
2018-03-20T16:49:51.530Z,71.60
2018-03-20T16:52:19.101Z,71.40
2018-03-20T16:54:46.564Z,71.10
2018-03-20T16:57:14.015Z,70.70
2018-03-20T16:59:41.465Z,70.50
2018-03-20T17:02:08.920Z,70.30
2018-03-20T17:04:36.393Z,69.90
2018-03-20T17:07:03.827Z,70.30
2018-03-20T17:09:31.275Z,70.50
2018-03-20T17:11:58.729Z,70.90
2018-03-20T17:14:26.377Z,71.10
2018-03-20T17:16:53.829Z,71.30
2018-03-20T17:19:21.276Z,71.70
2018-03-20T17:21:48.717Z,72.10
2018-03-20T17:24:16.183Z,72.60
2018-03-20T17:26:43.625Z,73.10
2018-03-20T17:29:11.845Z,73.90
2018-03-20T17:31:39.296Z,73.80
2018-03-20T17:34:06.745Z,74.30
2018-03-20T17:36:34.203Z,74.40
2018-03-20T17:39:01.638Z,74.10
2018-03-20T17:41:29.102Z,74.00
2018-03-20T17:43:56.639Z,74.50
2018-03-20T17:46:24.085Z,74.50
2018-03-20T17:48:51.546Z,74.70
2018-03-20T17:51:19.013Z,75.20
2018-03-20T17:53:46.482Z,75.50
2018-03-20T17:56:13.946Z,76.10
2018-03-20T17:58:41.382Z,77.80
2018-03-20T18:01:08.844Z,77.20
2018-03-20T18:03:36.282Z,77.60
2018-03-20T18:06:03.741Z,77.80
2018-03-20T18:08:31.175Z,78.10
2018-03-20T18:10:58.613Z,78.60
2018-03-20T18:13:26.070Z,79.20
2018-03-20T18:15:53.519Z,79.90
2018-03-20T18:18:20.967Z,80.80
2018-03-20T18:20:48.464Z,81.40
2018-03-20T18:23:15.906Z,81.90
2018-03-20T18:25:43.338Z,81.90
2018-03-20T18:28:11.113Z,82.10
2018-03-20T18:30:38.662Z,82.60
2018-03-20T18:33:06.123Z,82.80
2018-03-20T18:35:33.574Z,83.20
2018-03-20T18:38:01.269Z,83.50
2018-03-20T18:40:28.720Z,83.60
2018-03-20T18:42:56.172Z,84.20
2018-03-20T18:45:23.617Z,84.40
2018-03-20T18:47:51.259Z,84.90
2018-03-20T18:50:18.719Z,86.00
2018-03-20T18:52:46.157Z,86.50
2018-03-20T18:55:13.603Z,87.00
2018-03-20T18:57:41.084Z,87.40
2018-03-20T19:00:08.517Z,87.60
2018-03-20T19:02:39.334Z,88.90
2018-03-20T19:05:06.788Z,88.90
2018-03-20T19:07:34.236Z,89.10
2018-03-20T19:10:02.458Z,89.60
2018-03-20T19:12:29.904Z,89.40
2018-03-20T19:14:57.693Z,89.90
2018-03-20T19:17:25.144Z,90.00
2018-03-20T19:19:52.582Z,90.00
2018-03-20T19:22:20.034Z,90.10
2018-03-20T19:24:47.484Z,90.30
2018-03-20T19:27:14.934Z,90.50
2018-03-20T19:29:42.392Z,90.50
2018-03-20T19:32:10.611Z,90.70
2018-03-20T19:34:38.059Z,90.70
2018-03-20T19:37:06.277Z,90.60
2018-03-20T19:39:33.710Z,90.60
2018-03-20T19:42:01.178Z,91.10
2018-03-20T19:44:28.637Z,90.70
2018-03-20T19:46:56.068Z,90.60
2018-03-20T19:49:24.272Z,90.60
2018-03-20T19:51:51.718Z,90.60
2018-03-20T19:54:19.157Z,90.70
2018-03-20T19:56:46.602Z,90.80
2018-03-20T19:59:14.117Z,90.90
2018-03-20T20:01:41.518Z,91.20
2018-03-20T20:04:08.978Z,91.40
2018-03-20T20:06:36.430Z,91.60
2018-03-20T20:09:03.876Z,91.90
2018-03-20T20:11:31.330Z,92.10
2018-03-20T20:13:58.929Z,92.20
2018-03-20T20:16:26.385Z,92.20
2018-03-20T20:18:53.834Z,92.20
2018-03-20T20:21:21.319Z,92.30
2018-03-20T20:23:48.752Z,92.40
2018-03-20T20:26:16.313Z,92.30
2018-03-20T20:28:43.746Z,92.30
2018-03-20T20:31:11.194Z,92.40
2018-03-20T20:33:38.647Z,92.70
2018-03-20T20:36:06.090Z,92.90
2018-03-20T20:38:33.555Z,93.00
2018-03-20T20:41:00.987Z,93.40
2018-03-20T20:43:28.434Z,93.20
2018-03-20T20:45:55.912Z,93.20
2018-03-20T20:48:23.354Z,93.20
2018-03-20T20:50:50.813Z,93.10
2018-03-20T20:53:18.276Z,93.20
2018-03-20T20:55:45.717Z,93.30
2018-03-20T20:58:13.171Z,93.40
2018-03-20T21:00:41.701Z,93.40
2018-03-20T21:03:09.158Z,93.30
2018-03-20T21:05:36.590Z,93.50
2018-03-20T21:08:04.039Z,93.60
2018-03-20T21:10:32.259Z,93.60
2018-03-20T21:12:59.707Z,93.50
2018-03-20T21:15:27.149Z,93.50
2018-03-20T21:17:54.589Z,93.50
2018-03-20T21:20:22.790Z,93.50
2018-03-20T21:22:50.253Z,93.50
2018-03-20T21:25:17.698Z,93.50
2018-03-20T21:27:45.527Z,93.40
2018-03-20T21:30:12.990Z,93.50
2018-03-20T21:32:40.421Z,93.60
2018-03-20T21:35:07.880Z,93.60
2018-03-20T21:37:35.319Z,93.60
2018-03-20T21:40:02.780Z,93.50
2018-03-20T21:42:30.235Z,93.50
2018-03-20T21:44:57.680Z,93.30
2018-03-20T21:47:25.137Z,93.40
2018-03-20T21:49:52.578Z,93.70
2018-03-20T21:52:20.035Z,93.60
2018-03-20T21:54:47.477Z,93.50
2018-03-20T21:57:14.930Z,93.70
2018-03-20T21:59:42.378Z,93.60
2018-03-20T22:02:09.832Z,93.50
2018-03-20T22:04:37.281Z,93.70
2018-03-20T22:07:04.779Z,93.90
2018-03-20T22:09:32.163Z,94.60
2018-03-20T22:11:59.625Z,94.40
2018-03-20T22:14:27.066Z,94.40
2018-03-20T22:16:54.890Z,94.40
2018-03-20T22:19:23.093Z,94.50
2018-03-20T22:21:50.544Z,94.60
2018-03-20T22:24:18.003Z,94.70
2018-03-20T22:26:45.438Z,94.80
2018-03-20T22:29:13.663Z,95.00
2018-03-20T22:31:41.106Z,95.00
2018-03-20T22:34:08.628Z,95.10
2018-03-20T22:36:36.078Z,95.00
2018-03-20T22:39:03.528Z,95.00
2018-03-20T22:41:31.371Z,95.10
2018-03-20T22:43:58.840Z,95.10
2018-03-20T22:46:26.285Z,95.00
2018-03-20T22:48:53.736Z,95.20
2018-03-20T22:51:21.956Z,95.30
2018-03-20T22:53:49.670Z,95.30
2018-03-20T22:56:17.889Z,95.40
2018-03-20T22:58:45.332Z,95.10
2018-03-20T23:01:12.797Z,95.10
2018-03-20T23:03:40.244Z,95.10
2018-03-20T23:06:07.699Z,95.20
2018-03-20T23:08:35.142Z,95.10
2018-03-20T23:11:02.589Z,94.90
2018-03-20T23:13:30.072Z,94.80
2018-03-20T23:15:57.514Z,94.80
2018-03-20T23:18:25.285Z,94.80
2018-03-20T23:20:52.734Z,94.70
2018-03-20T23:23:20.200Z,94.80
2018-03-20T23:25:47.651Z,94.80
2018-03-20T23:28:15.097Z,94.60
2018-03-20T23:30:42.554Z,94.50
2018-03-20T23:33:10.016Z,94.60
2018-03-20T23:35:37.468Z,94.70
2018-03-20T23:38:04.917Z,94.60
2018-03-20T23:40:32.387Z,94.50
2018-03-20T23:42:59.843Z,94.40
2018-03-20T23:45:27.278Z,94.30
2018-03-20T23:47:55.499Z,94.00
2018-03-20T23:50:22.971Z,93.90
2018-03-20T23:52:50.442Z,93.90
2018-03-20T23:55:17.926Z,93.90
2018-03-20T23:57:45.378Z,93.90
